sensor_id;sensor_type;location;lat;lon;timestamp;P1;durP1;ratioP1;P2;durP2;ratioP2
72674;SDS011;60752;53.962;9.614;2023-04-24T00:25:43;12.43;;;6.77;;
72674;SDS011;60752;53.962;9.614;2023-04-24T00:55:45;10.97;;;6.47;;
72674;SDS011;60752;53.962;9.614;2023-04-24T01:25:47;11.80;;;6.47;;
72674;SDS011;60752;53.962;9.614;2023-04-24T01:55:50;11.47;;;7.17;;
72674;SDS011;60752;53.962;9.614;2023-04-24T02:25:52;11.83;;;5.80;;
72674;SDS011;60752;53.962;9.614;2023-04-24T02:55:54;7.93;;;4.20;;
72674;SDS011;60752;53.962;9.614;2023-04-24T03:25:56;5.47;;;2.77;;
72674;SDS011;60752;53.962;9.614;2023-04-24T03:55:58;5.10;;;2.80;;
72674;SDS011;60752;53.962;9.614;2023-04-24T04:26:00;4.20;;;2.17;;
72674;SDS011;60752;53.962;9.614;2023-04-24T04:56:02;4.47;;;2.07;;
72674;SDS011;60752;53.962;9.614;2023-04-24T05:26:04;5.53;;;2.40;;
72674;SDS011;60752;53.962;9.614;2023-04-24T05:56:06;4.37;;;2.07;;
72674;SDS011;60752;53.962;9.614;2023-04-24T06:26:08;4.20;;;1.97;;
72674;SDS011;60752;53.962;9.614;2023-04-24T06:56:09;4.77;;;1.90;;
72674;SDS011;60752;53.962;9.614;2023-04-24T07:26:12;4.43;;;2.20;;
72674;SDS011;60752;53.962;9.614;2023-04-24T07:56:13;6.30;;;2.77;;
72674;SDS011;60752;53.962;9.614;2023-04-24T08:26:16;5.20;;;2.77;;
72674;SDS011;60752;53.962;9.614;2023-04-24T08:56:18;7.40;;;3.87;;
72674;SDS011;60752;53.962;9.614;2023-04-24T09:26:20;6.50;;;3.53;;
72674;SDS011;60752;53.962;9.614;2023-04-24T09:56:23;6.83;;;3.93;;
72674;SDS011;60752;53.962;9.614;2023-04-24T10:26:27;9.07;;;5.03;;
72674;SDS011;60752;53.962;9.614;2023-04-24T10:56:29;10.17;;;5.30;;
72674;SDS011;60752;53.962;9.614;2023-04-24T11:26:30;10.77;;;5.33;;
72674;SDS011;60752;53.962;9.614;2023-04-24T11:56:39;12.00;;;6.03;;
72674;SDS011;60752;53.962;9.614;2023-04-24T12:26:46;13.20;;;6.87;;
72674;SDS011;60752;53.962;9.614;2023-04-24T12:56:48;10.87;;;6.37;;
72674;SDS011;60752;53.962;9.614;2023-04-24T13:26:49;11.27;;;5.60;;
72674;SDS011;60752;53.962;9.614;2023-04-24T13:56:51;11.10;;;5.53;;
72674;SDS011;60752;53.962;9.614;2023-04-24T14:26:53;6.70;;;2.90;;
72674;SDS011;60752;53.962;9.614;2023-04-24T14:56:55;4.43;;;1.97;;
72674;SDS011;60752;53.962;9.614;2023-04-24T15:26:57;7.33;;;2.63;;
72674;SDS011;60752;53.962;9.614;2023-04-24T15:57:00;8.80;;;4.10;;
72674;SDS011;60752;53.962;9.614;2023-04-24T16:27:02;6.23;;;3.00;;
72674;SDS011;60752;53.962;9.614;2023-04-24T16:57:04;6.17;;;2.50;;
72674;SDS011;60752;53.962;9.614;2023-04-24T17:27:06;7.33;;;2.60;;
72674;SDS011;60752;53.962;9.614;2023-04-24T17:57:08;9.53;;;3.33;;
72674;SDS011;60752;53.962;9.614;2023-04-24T18:27:09;7.00;;;1.73;;
72674;SDS011;60752;53.962;9.614;2023-04-24T18:57:11;5.50;;;1.07;;
72674;SDS011;60752;53.962;9.614;2023-04-24T19:27:13;2.83;;;0.93;;
72674;SDS011;60752;53.962;9.614;2023-04-24T19:57:15;4.80;;;1.43;;
72674;SDS011;60752;53.962;9.614;2023-04-24T20:27:17;8.23;;;1.83;;
72674;SDS011;60752;53.962;9.614;2023-04-24T20:57:19;7.60;;;2.93;;
72674;SDS011;60752;53.962;9.614;2023-04-24T21:27:20;10.27;;;3.00;;
72674;SDS011;60752;53.962;9.614;2023-04-24T21:57:22;6.13;;;2.80;;
72674;SDS011;60752;53.962;9.614;2023-04-24T22:27:24;7.67;;;3.33;;
72674;SDS011;60752;53.962;9.614;2023-04-24T22:57:26;9.97;;;2.63;;
72674;SDS011;60752;53.962;9.614;2023-04-24T23:27:28;12.17;;;2.20;;
72674;SDS011;60752;53.962;9.614;2023-04-24T23:57:30;9.73;;;2.20;;
